Time;durP1;ratioP1;P1;durP2;ratioP2;P2;SDS_P1;SDS_P2;PMS_P1;PMS_P2;Temp;Humidity;BMP_temperature;BMP_pressure;BME280_temperature;BME280_humidity;BME280_pressure;Samples;Min_cycle;Max_cycle;Signal;HPM_P1;HPM_P2
2021/12/09 00:01:05;;;;;;;27.93;14.90;;;2.60;99.90;;;;;;5073085;28;20198;-65
2021/12/09 00:03:35;;;;;;;25.20;14.13;;;2.50;99.90;;;;;;5073500;28;20202;-65
2021/12/09 00:06:03;;;;;;;23.00;13.27;;;2.50;99.90;;;;;;5073260;28;20199;-70
2021/12/09 00:08:30;;;;;;;22.97;12.40;;;2.50;99.90;;;;;;5061934;28;20199;-70
2021/12/09 00:10:59;;;;;;;25.67;14.63;;;2.50;99.90;;;;;;5063165;28;20572;-70
2021/12/09 00:13:28;;;;;;;26.37;16.53;;;2.50;99.90;;;;;;5054288;28;20229;-70
2021/12/09 00:15:57;;;;;;;31.30;16.73;;;2.50;99.90;;;;;;5065130;28;20199;-70
2021/12/09 00:18:24;;;;;;;31.50;18.07;;;2.50;99.90;;;;;;5072006;28;20544;-70
2021/12/09 00:20:50;;;;;;;32.80;18.37;;;2.50;99.90;;;;;;5071896;28;20566;-70
2021/12/09 00:23:17;;;;;;;39.17;19.63;;;2.40;99.90;;;;;;5079159;28;20202;-70
2021/12/09 00:25:44;;;;;;;32.40;17.13;;;2.40;99.90;;;;;;5071798;28;20563;-70
2021/12/09 00:28:11;;;;;;;30.93;16.93;;;2.40;99.90;;;;;;5073021;28;20198;-70
2021/12/09 00:30:38;;;;;;;33.00;18.13;;;2.30;99.90;;;;;;5074409;28;20656;-70
2021/12/09 00:33:07;;;;;;;35.27;17.90;;;2.30;99.90;;;;;;5092556;28;20596;-70
2021/12/09 00:35:44;;;;;;;36.73;18.70;;;2.20;99.90;;;;;;5072558;28;20199;-70
2021/12/09 00:38:19;;;;;;;38.37;19.50;;;2.20;99.90;;;;;;5082127;28;20296;-70
2021/12/09 00:40:47;;;;;;;39.63;19.47;;;2.30;99.90;;;;;;5071645;28;20197;-70
2021/12/09 00:43:15;;;;;;;39.77;20.30;;;2.20;99.90;;;;;;5080314;28;20208;-70
2021/12/09 00:45:42;;;;;;;39.63;20.30;;;2.20;99.90;;;;;;5073579;28;20206;-70
2021/12/09 00:48:10;;;;;;;40.93;21.53;;;2.10;99.90;;;;;;5072115;28;20369;-70
2021/12/09 00:50:37;;;;;;;39.30;19.40;;;2.10;99.90;;;;;;5071943;28;20198;-70
2021/12/09 00:53:04;;;;;;;39.47;20.43;;;2.10;99.90;;;;;;5083383;28;20218;-70
2021/12/09 00:55:31;;;;;;;38.40;20.77;;;2.10;99.90;;;;;;5070585;28;20198;-70
2021/12/09 00:57:57;;;;;;;40.17;20.47;;;2.00;99.90;;;;;;5071398;28;20198;-70
2021/12/09 01:00:24;;;;;;;42.60;21.63;;;2.10;99.90;;;;;;5072721;28;20198;-70
2021/12/09 01:02:51;;;;;;;40.50;21.33;;;2.10;99.90;;;;;;5075495;28;20233;-70
2021/12/09 01:05:20;;;;;;;39.23;20.23;;;2.10;99.90;;;;;;5077611;28;20554;-70
2021/12/09 01:07:46;;;;;;;42.90;21.80;;;2.10;99.90;;;;;;5071539;28;20225;-70
2021/12/09 01:10:16;;;;;;;39.77;21.87;;;2.10;99.90;;;;;;5071862;28;20217;-70
2021/12/09 01:12:43;;;;;;;44.13;20.90;;;2.10;99.90;;;;;;5066768;28;20223;-70
2021/12/09 01:15:12;;;;;;;40.30;21.13;;;2.10;99.90;;;;;;5064282;28;20198;-70
2021/12/09 01:17:40;;;;;;;39.60;19.80;;;2.10;99.90;;;;;;5071678;28;20660;-70
2021/12/09 01:20:10;;;;;;;41.67;20.60;;;2.00;99.90;;;;;;5072095;28;20213;-70
2021/12/09 01:22:42;;;;;;;40.90;20.37;;;2.00;99.90;;;;;;5065975;28;20195;-70
2021/12/09 01:25:11;;;;;;;42.20;21.57;;;2.00;99.90;;;;;;5060751;28;20206;-70
2021/12/09 01:27:40;;;;;;;44.00;20.67;;;1.90;99.90;;;;;;5065738;28;20203;-70
2021/12/09 01:30:13;;;;;;;42.50;20.17;;;1.90;99.90;;;;;;5059611;28;20199;-70
2021/12/09 01:32:43;;;;;;;42.97;21.30;;;1.80;99.90;;;;;;5051520;28;20306;-70
2021/12/09 01:35:10;;;;;;;42.00;21.03;;;1.80;99.90;;;;;;5071366;28;20712;-70
2021/12/09 01:37:39;;;;;;;44.30;22.10;;;1.80;99.90;;;;;;5082145;28;20202;-70
2021/12/09 01:40:08;;;;;;;42.83;20.90;;;1.80;99.90;;;;;;5071555;28;20289;-70
2021/12/09 01:42:35;;;;;;;41.63;20.70;;;1.70;99.90;;;;;;5073343;28;20565;-70
2021/12/09 01:45:03;;;;;;;43.03;20.87;;;1.70;99.90;;;;;;5079208;28;20207;-70
2021/12/09 01:47:30;;;;;;;39.67;20.03;;;1.70;99.90;;;;;;5073820;28;20237;-70
2021/12/09 01:49:58;;;;;;;43.53;20.87;;;1.70;99.90;;;;;;5076007;28;20570;-71
2021/12/09 01:52:27;;;;;;;41.13;21.70;;;1.60;99.90;;;;;;5075023;28;20210;-70
2021/12/09 01:54:55;;;;;;;41.97;21.27;;;1.70;99.90;;;;;;5071771;28;20222;-70
2021/12/09 01:57:22;;;;;;;43.73;22.17;;;1.70;99.90;;;;;;5054855;28;20199;-70
2021/12/09 01:59:49;;;;;;;47.97;25.13;;;1.70;99.90;;;;;;5069879;28;20202;-70
2021/12/09 02:02:16;;;;;;;46.37;24.03;;;1.70;99.90;;;;;;5077045;28;20198;-70
2021/12/09 02:04:43;;;;;;;43.40;22.00;;;1.80;99.90;;;;;;5075245;28;20682;-70
2021/12/09 02:07:11;;;;;;;46.13;22.57;;;1.80;99.90;;;;;;5075881;28;20210;-70
2021/12/09 02:09:38;;;;;;;47.27;22.00;;;1.80;99.90;;;;;;5059946;28;20202;-70
2021/12/09 02:12:10;;;;;;;48.13;24.53;;;1.80;99.90;;;;;;5054904;28;20199;-70
2021/12/09 02:14:41;;;;;;;49.80;23.23;;;1.90;99.90;;;;;;5066247;28;20210;-70
2021/12/09 02:17:09;;;;;;;46.13;22.27;;;1.90;99.90;;;;;;5063588;28;20209;-71
2021/12/09 02:19:36;;;;;;;48.23;22.23;;;1.90;99.90;;;;;;5075677;28;20649;-70
2021/12/09 02:22:04;;;;;;;51.17;24.27;;;1.90;99.90;;;;;;5074837;28;20297;-70
2021/12/09 02:24:31;;;;;;;46.33;22.43;;;1.90;99.90;;;;;;5060351;28;20205;-70
2021/12/09 02:26:58;;;;;;;52.20;24.60;;;1.80;99.90;;;;;;5069927;28;20531;-70
2021/12/09 02:29:25;;;;;;;45.57;22.73;;;1.70;99.90;;;;;;5067692;28;20645;-70
2021/12/09 02:31:56;;;;;;;50.87;23.00;;;1.70;99.90;;;;;;5065136;28;20659;-70
2021/12/09 02:34:23;;;;;;;50.50;23.10;;;1.70;99.90;;;;;;5067277;28;20223;-70
2021/12/09 02:36:51;;;;;;;46.30;22.40;;;1.80;99.90;;;;;;5071565;28;20610;-70
2021/12/09 02:39:20;;;;;;;41.70;20.87;;;1.70;99.90;;;;;;5082624;28;20263;-70
2021/12/09 02:41:49;;;;;;;43.60;20.30;;;1.70;99.90;;;;;;5073926;28;20668;-70
2021/12/09 02:44:18;;;;;;;47.30;21.90;;;1.60;99.90;;;;;;5063680;28;20198;-70
2021/12/09 02:46:47;;;;;;;45.50;21.67;;;1.60;99.90;;;;;;5070055;28;20626;-70
2021/12/09 02:49:18;;;;;;;46.30;21.73;;;1.60;99.90;;;;;;5058578;28;20203;-70
2021/12/09 02:51:46;;;;;;;42.07;21.40;;;1.60;99.90;;;;;;5075044;28;20213;-70
2021/12/09 02:54:16;;;;;;;45.20;23.40;;;1.60;99.90;;;;;;5086414;28;20226;-70
2021/12/09 02:56:46;;;;;;;45.97;22.07;;;1.70;99.90;;;;;;5073389;28;20240;-70
2021/12/09 02:59:13;;;;;;;43.27;21.40;;;1.70;99.90;;;;;;5073300;28;20228;-70
2021/12/09 03:01:54;;;;;;;50.43;22.63;;;1.70;99.90;;;;;;5073779;28;20311;-70
2021/12/09 03:04:21;;;;;;;44.07;21.47;;;1.70;99.90;;;;;;5076279;28;20258;-70
2021/12/09 03:06:50;;;;;;;48.40;22.97;;;1.70;99.90;;;;;;5074828;28;20221;-69
2021/12/09 03:09:19;;;;;;;49.10;23.07;;;1.50;99.90;;;;;;5074975;28;20649;-70
2021/12/09 03:11:53;;;;;;;46.87;22.63;;;1.70;99.90;;;;;;5073121;28;20711;-70
2021/12/09 03:14:21;;;;;;;48.60;21.60;;;1.70;99.90;;;;;;5063824;28;20226;-70
2021/12/09 03:16:48;;;;;;;46.53;24.23;;;1.70;99.90;;;;;;5064353;28;20212;-70
2021/12/09 03:19:15;;;;;;;49.50;21.97;;;1.80;99.90;;;;;;5072445;28;20203;-70
2021/12/09 03:21:44;;;;;;;48.73;23.00;;;1.80;99.90;;;;;;5055647;28;20294;-70
2021/12/09 03:24:15;;;;;;;50.60;24.23;;;1.80;99.90;;;;;;5059623;28;20194;-70
2021/12/09 03:26:46;;;;;;;49.80;22.30;;;1.80;99.90;;;;;;5054373;28;20207;-70
2021/12/09 03:29:17;;;;;;;47.13;22.47;;;1.80;99.90;;;;;;5067259;28;20249;-70
2021/12/09 03:31:46;;;;;;;50.03;24.20;;;1.80;99.90;;;;;;5074327;28;20202;-70
2021/12/09 03:34:15;;;;;;;48.30;23.13;;;1.80;99.90;;;;;;5089493;28;20601;-70
2021/12/09 03:36:43;;;;;;;50.70;23.77;;;1.80;99.90;;;;;;5087022;28;20671;-70
2021/12/09 03:39:15;;;;;;;53.20;25.73;;;1.80;99.90;;;;;;5087524;28;20547;-66
2021/12/09 03:41:43;;;;;;;54.77;25.33;;;1.80;99.90;;;;;;5072587;28;20201;-66
2021/12/09 03:44:10;;;;;;;48.67;22.17;;;1.70;99.90;;;;;;5073223;28;20221;-66
2021/12/09 03:46:39;;;;;;;55.27;25.17;;;1.70;99.90;;;;;;5073588;28;20195;-66
2021/12/09 03:49:06;;;;;;;55.93;25.30;;;1.60;99.90;;;;;;5071751;28;20205;-66
2021/12/09 03:51:35;;;;;;;61.60;25.27;;;1.50;99.90;;;;;;5072089;28;20229;-66
2021/12/09 03:54:03;;;;;;;60.30;26.53;;;1.40;99.90;;;;;;5071483;28;20226;-66
2021/12/09 03:56:30;;;;;;;62.13;25.67;;;1.40;99.90;;;;;;5071616;28;20194;-66
2021/12/09 03:58:57;;;;;;;62.00;27.57;;;1.50;99.90;;;;;;5070985;28;20210;-66
2021/12/09 04:01:24;;;;;;;59.40;27.20;;;1.40;99.90;;;;;;5052748;28;20203;-66
2021/12/09 04:03:52;;;;;;;61.07;25.93;;;1.50;99.90;;;;;;5054161;28;20665;-66
2021/12/09 04:06:19;;;;;;;54.43;24.80;;;1.50;99.90;;;;;;5077145;28;20210;-66
2021/12/09 04:08:47;;;;;;;52.83;25.63;;;1.50;99.90;;;;;;5085008;28;20667;-66
2021/12/09 04:11:14;;;;;;;63.07;25.20;;;1.40;99.90;;;;;;5072032;28;20206;-67
2021/12/09 04:13:41;;;;;;;60.47;27.23;;;1.30;99.90;;;;;;5079624;28;20210;-66
2021/12/09 04:16:08;;;;;;;62.57;27.07;;;1.30;99.90;;;;;;5073364;28;20214;-66
2021/12/09 04:18:36;;;;;;;57.73;25.83;;;1.30;99.90;;;;;;5071378;28;20194;-66
2021/12/09 04:21:05;;;;;;;57.93;26.30;;;1.40;99.90;;;;;;5073413;28;20209;-66
2021/12/09 04:23:32;;;;;;;58.67;26.37;;;1.30;99.90;;;;;;5073119;28;20202;-66
2021/12/09 04:26:00;;;;;;;53.07;24.10;;;1.20;99.90;;;;;;5072038;28;20210;-66
2021/12/09 04:28:27;;;;;;;56.93;25.37;;;1.20;99.90;;;;;;5072904;28;20202;-66
2021/12/09 04:30:54;;;;;;;58.47;24.90;;;1.20;99.90;;;;;;5072558;28;20206;-66
2021/12/09 04:33:21;;;;;;;55.47;24.87;;;1.10;99.90;;;;;;5072250;28;20225;-66
2021/12/09 04:35:48;;;;;;;60.97;26.10;;;1.20;99.90;;;;;;5072235;28;20210;-66
2021/12/09 04:38:16;;;;;;;62.87;26.13;;;1.20;99.90;;;;;;5073197;28;20206;-66
2021/12/09 04:40:43;;;;;;;58.57;25.53;;;1.20;99.90;;;;;;5071990;28;20221;-66
2021/12/09 04:43:10;;;;;;;59.17;25.47;;;1.20;99.90;;;;;;5072617;28;20206;-66
2021/12/09 04:45:38;;;;;;;57.57;27.63;;;1.20;99.90;;;;;;5073003;28;20589;-66
2021/12/09 04:48:06;;;;;;;56.27;25.80;;;1.20;99.90;;;;;;5072023;28;20554;-66
2021/12/09 04:50:34;;;;;;;59.57;25.73;;;1.20;99.90;;;;;;5072727;28;20218;-66
2021/12/09 04:53:01;;;;;;;58.97;25.63;;;1.20;99.90;;;;;;5072667;28;20210;-66
2021/12/09 04:55:29;;;;;;;60.60;25.00;;;1.10;99.90;;;;;;5071461;28;20198;-66
2021/12/09 04:57:56;;;;;;;58.47;26.00;;;1.10;99.90;;;;;;5072512;28;20206;-66
2021/12/09 05:00:26;;;;;;;59.67;25.30;;;1.00;99.90;;;;;;5072348;28;20202;-66
2021/12/09 05:03:05;;;;;;;54.03;24.83;;;1.10;99.90;;;;;;5071732;28;20210;-66
2021/12/09 05:05:36;;;;;;;58.63;25.93;;;1.10;99.90;;;;;;5072751;28;20206;-66
2021/12/09 05:08:05;;;;;;;53.87;24.77;;;1.00;99.90;;;;;;5090203;28;20213;-66
2021/12/09 05:10:48;;;;;;;55.57;24.67;;;0.90;99.90;;;;;;5092567;28;20667;-66
2021/12/09 05:13:15;;;;;;;57.63;25.30;;;1.00;99.90;;;;;;5091680;28;20306;-66
2021/12/09 05:15:41;;;;;;;57.97;26.00;;;1.10;99.90;;;;;;5092535;28;20201;-66
2021/12/09 05:18:09;;;;;;;57.00;25.23;;;1.10;99.90;;;;;;5091824;28;20217;-66
2021/12/09 05:20:35;;;;;;;59.40;24.50;;;1.00;99.90;;;;;;5091887;28;20202;-66
2021/12/09 05:23:03;;;;;;;60.77;25.10;;;0.90;99.90;;;;;;5091707;28;20216;-66
2021/12/09 05:25:30;;;;;;;60.97;26.17;;;0.90;99.90;;;;;;5092511;28;20573;-66
2021/12/09 05:27:59;;;;;;;62.83;26.73;;;0.80;99.90;;;;;;5091680;28;20292;-66
2021/12/09 05:30:38;;;;;;;62.67;26.30;;;0.80;99.90;;;;;;5091359;28;20288;-66
2021/12/09 05:33:04;;;;;;;61.27;26.40;;;0.90;99.90;;;;;;5090802;28;20246;-66
2021/12/09 05:35:31;;;;;;;55.57;26.13;;;1.00;99.90;;;;;;5091811;28;20209;-66
2021/12/09 05:37:58;;;;;;;66.80;27.53;;;1.00;99.90;;;;;;5092155;28;20215;-66
2021/12/09 05:40:25;;;;;;;64.40;26.33;;;1.00;99.90;;;;;;5091733;28;20201;-66
2021/12/09 05:42:51;;;;;;;62.93;26.73;;;1.00;99.90;;;;;;5091583;28;20563;-66
2021/12/09 05:45:20;;;;;;;63.27;29.17;;;1.00;99.90;;;;;;5091916;28;20205;-66
2021/12/09 05:47:47;;;;;;;66.83;28.67;;;1.00;99.90;;;;;;5091435;28;20202;-66
2021/12/09 05:50:13;;;;;;;64.17;27.47;;;1.00;99.90;;;;;;5092400;28;20577;-66
2021/12/09 05:52:40;;;;;;;58.80;25.37;;;1.10;99.90;;;;;;5091574;28;20213;-66
2021/12/09 05:55:08;;;;;;;65.60;26.70;;;1.00;99.90;;;;;;5091293;28;20222;-66
2021/12/09 05:57:35;;;;;;;70.47;26.37;;;0.90;99.90;;;;;;5091537;28;20228;-66
2021/12/09 06:00:01;;;;;;;71.70;28.33;;;0.90;99.90;;;;;;5092069;28;20211;-66
2021/12/09 06:02:32;;;;;;;69.50;27.90;;;1.00;99.90;;;;;;5091871;28;20209;-66
2021/12/09 06:04:59;;;;;;;70.77;27.70;;;1.00;99.90;;;;;;5092233;28;20571;-66
2021/12/09 06:07:26;;;;;;;74.47;29.43;;;1.00;99.90;;;;;;5091887;28;20205;-66
2021/12/09 06:09:54;;;;;;;71.73;28.10;;;1.10;99.90;;;;;;5091542;28;20293;-66
2021/12/09 06:12:21;;;;;;;79.30;28.57;;;1.10;99.90;;;;;;5073970;28;20550;-66
2021/12/09 06:14:48;;;;;;;73.87;30.97;;;1.10;99.90;;;;;;5071508;28;20229;-66
2021/12/09 06:17:14;;;;;;;68.10;26.93;;;1.10;99.90;;;;;;5070941;28;20206;-66
2021/12/09 06:19:43;;;;;;;66.17;27.80;;;1.20;99.90;;;;;;5083180;28;20602;-66
2021/12/09 06:22:10;;;;;;;68.20;27.67;;;1.20;99.90;;;;;;5071596;28;20232;-66
2021/12/09 06:24:37;;;;;;;65.13;26.37;;;1.30;99.90;;;;;;5091083;28;20198;-66
2021/12/09 06:27:06;;;;;;;66.63;27.47;;;1.30;99.90;;;;;;5090830;28;20206;-66
2021/12/09 06:29:33;;;;;;;70.03;27.77;;;1.30;99.90;;;;;;5092197;28;20625;-66
2021/12/09 06:32:00;;;;;;;71.50;28.10;;;1.30;99.90;;;;;;5091652;28;20208;-66
2021/12/09 06:34:27;;;;;;;82.53;29.40;;;1.30;99.90;;;;;;5095222;28;20634;-66
2021/12/09 06:36:56;;;;;;;69.13;28.53;;;1.30;99.90;;;;;;5095937;28;20202;-66
2021/12/09 06:39:22;;;;;;;72.90;27.40;;;1.30;99.90;;;;;;5095335;28;20670;-66
2021/12/09 06:41:49;;;;;;;78.07;29.33;;;1.30;99.90;;;;;;5094301;28;20201;-66
2021/12/09 06:44:16;;;;;;;75.07;28.80;;;1.30;99.90;;;;;;5095520;28;20202;-66
2021/12/09 06:46:43;;;;;;;82.83;30.27;;;1.30;99.90;;;;;;5095296;28;20201;-66
2021/12/09 06:49:10;;;;;;;71.60;28.00;;;1.30;99.90;;;;;;5094901;28;20639;-65
2021/12/09 06:51:37;;;;;;;82.20;27.90;;;1.30;99.90;;;;;;5095095;28;20205;-66
2021/12/09 06:54:05;;;;;;;73.83;27.80;;;1.30;99.90;;;;;;5094436;28;20217;-66
2021/12/09 06:56:32;;;;;;;83.93;29.40;;;1.30;99.90;;;;;;5093973;28;20585;-66
2021/12/09 06:58:59;;;;;;;78.90;29.87;;;1.30;99.90;;;;;;5094852;28;20228;-66
2021/12/09 07:01:26;;;;;;;85.17;30.03;;;1.40;99.90;;;;;;5094868;28;20208;-66
2021/12/09 07:03:53;;;;;;;80.10;30.03;;;1.40;99.90;;;;;;5094343;28;20209;-66
2021/12/09 07:06:21;;;;;;;82.00;31.60;;;1.30;99.90;;;;;;5095153;28;20768;-66
2021/12/09 07:08:49;;;;;;;81.27;31.57;;;1.40;99.90;;;;;;5094376;28;20212;-65
2021/12/09 07:11:19;;;;;;;80.63;30.00;;;1.40;99.90;;;;;;5092590;28;20194;-72
2021/12/09 07:13:48;;;;;;;80.27;28.57;;;1.40;99.90;;;;;;5093981;28;20205;-72
2021/12/09 07:16:15;;;;;;;84.00;31.77;;;1.40;99.90;;;;;;5094124;28;20205;-71
2021/12/09 07:18:42;;;;;;;78.77;30.00;;;1.40;99.90;;;;;;5092055;28;20198;-73
2021/12/09 07:21:10;;;;;;;80.80;30.97;;;1.40;99.90;;;;;;5093906;28;20259;-72
2021/12/09 07:23:37;;;;;;;73.40;29.27;;;1.50;99.90;;;;;;5078375;28;20260;-71
2021/12/09 07:26:05;;;;;;;88.00;32.47;;;1.50;99.90;;;;;;5074157;28;20206;-71
2021/12/09 07:28:33;;;;;;;84.83;31.30;;;1.50;99.90;;;;;;5074160;28;20248;-72
2021/12/09 07:31:00;;;;;;;84.23;32.43;;;1.50;99.90;;;;;;5093543;28;20643;-71
2021/12/09 07:33:27;;;;;;;78.53;30.53;;;1.60;99.90;;;;;;5092690;28;20219;-72
2021/12/09 07:35:54;;;;;;;78.37;32.20;;;1.60;99.90;;;;;;5091040;28;20222;-72
2021/12/09 07:38:21;;;;;;;79.23;30.70;;;1.60;99.90;;;;;;5069159;28;20238;-71
2021/12/09 07:40:49;;;;;;;76.57;31.07;;;1.60;99.90;;;;;;5072500;28;20253;-72
2021/12/09 07:43:16;;;;;;;72.67;31.10;;;1.60;99.90;;;;;;5072483;28;20230;-72
2021/12/09 07:45:44;;;;;;;71.57;30.27;;;1.60;99.90;;;;;;5073188;28;20256;-73
2021/12/09 07:48:11;;;;;;;69.27;29.57;;;1.70;99.90;;;;;;5072384;28;20284;-72
2021/12/09 07:50:38;;;;;;;73.03;30.80;;;1.70;99.90;;;;;;5073085;28;20580;-72
2021/12/09 07:53:05;;;;;;;65.17;27.93;;;1.70;99.90;;;;;;5072653;28;20207;-72
2021/12/09 07:55:32;;;;;;;63.97;28.43;;;1.70;99.90;;;;;;5070949;28;20245;-72
2021/12/09 07:57:59;;;;;;;67.73;28.50;;;1.70;99.90;;;;;;5072496;28;20206;-73
2021/12/09 08:00:29;;;;;;;70.53;27.47;;;1.70;99.90;;;;;;5071331;28;20257;-73
2021/12/09 08:02:59;;;;;;;64.73;28.17;;;1.70;99.90;;;;;;5071454;28;20212;-73
2021/12/09 08:05:29;;;;;;;62.70;26.23;;;1.70;99.90;;;;;;5073126;28;20206;-72
2021/12/09 08:07:56;;;;;;;57.33;26.63;;;1.80;99.90;;;;;;5072840;28;20275;-73
2021/12/09 08:10:24;;;;;;;59.90;25.97;;;1.80;99.90;;;;;;5072810;28;20624;-73
2021/12/09 08:12:52;;;;;;;59.97;26.30;;;1.80;99.90;;;;;;5071862;28;20202;-73
2021/12/09 08:15:19;;;;;;;61.43;26.57;;;1.80;99.90;;;;;;5072683;28;20313;-72
2021/12/09 08:18:00;;;;;;;55.03;26.27;;;1.80;99.90;;;;;;5071662;28;20277;-73
2021/12/09 08:20:30;;;;;;;56.33;27.03;;;1.80;99.90;;;;;;5072549;28;20199;-71
2021/12/09 08:22:57;;;;;;;58.20;26.17;;;1.90;99.90;;;;;;5071597;28;20214;-72
2021/12/09 08:25:24;;;;;;;58.97;25.70;;;2.00;99.90;;;;;;5072514;28;20271;-71
2021/12/09 08:27:52;;;;;;;55.50;25.13;;;1.90;99.90;;;;;;5071637;28;20719;-72
2021/12/09 08:30:21;;;;;;;56.53;25.63;;;1.90;99.90;;;;;;5072598;28;20613;-72
2021/12/09 08:32:49;;;;;;;55.73;26.00;;;2.00;99.90;;;;;;5072093;28;20194;-71
2021/12/09 08:35:16;;;;;;;59.93;25.70;;;2.00;99.90;;;;;;5071370;28;20217;-72
2021/12/09 08:37:46;;;;;;;59.83;25.87;;;2.10;99.90;;;;;;5072297;28;20214;-71
2021/12/09 08:40:15;;;;;;;58.73;25.83;;;2.10;99.90;;;;;;5071639;28;20198;-72
2021/12/09 08:42:43;;;;;;;61.47;27.43;;;2.10;99.90;;;;;;5071394;28;20236;-72
2021/12/09 08:45:12;;;;;;;56.20;25.23;;;2.10;99.90;;;;;;5072030;28;20202;-72
2021/12/09 08:47:42;;;;;;;59.23;25.97;;;2.10;99.90;;;;;;5071288;28;20255;-71
2021/12/09 08:50:12;;;;;;;56.60;25.70;;;2.10;99.90;;;;;;5072224;28;20484;-72
2021/12/09 08:52:39;;;;;;;54.13;26.13;;;2.20;99.90;;;;;;5071868;28;20256;-72
2021/12/09 08:55:08;;;;;;;59.47;27.27;;;2.20;99.90;;;;;;5071291;28;20271;-72
2021/12/09 08:57:36;;;;;;;55.97;27.03;;;2.30;99.90;;;;;;5070431;28;20203;-72
2021/12/09 09:00:06;;;;;;;57.30;26.57;;;2.30;99.90;;;;;;5072322;28;20310;-72
2021/12/09 09:02:33;;;;;;;51.93;24.13;;;2.30;99.90;;;;;;5070848;28;20203;-72
2021/12/09 09:05:00;;;;;;;51.20;25.10;;;2.40;99.90;;;;;;5071622;28;20206;-72
2021/12/09 09:07:27;;;;;;;50.83;23.87;;;2.40;99.90;;;;;;5071450;28;20238;-72
2021/12/09 09:09:54;;;;;;;52.63;23.97;;;2.50;99.90;;;;;;5067499;28;20203;-72
2021/12/09 09:12:23;;;;;;;45.63;23.00;;;2.50;99.90;;;;;;5070150;28;20206;-73
2021/12/09 09:14:50;;;;;;;47.63;22.70;;;2.40;99.90;;;;;;5070293;28;20622;-72
2021/12/09 09:17:17;;;;;;;48.90;23.73;;;2.40;99.90;;;;;;5070576;28;20214;-72
2021/12/09 09:19:45;;;;;;;49.87;23.13;;;2.40;99.90;;;;;;5071709;28;20198;-72
2021/12/09 09:22:13;;;;;;;47.87;23.43;;;2.50;99.90;;;;;;5070855;28;20674;-73
2021/12/09 09:24:40;;;;;;;50.77;25.57;;;2.60;99.90;;;;;;5071977;28;20606;-73
2021/12/09 09:27:07;;;;;;;45.10;22.83;;;2.60;99.90;;;;;;5070619;28;20206;-72
2021/12/09 09:29:38;;;;;;;48.67;23.23;;;2.70;99.90;;;;;;5071493;28;20248;-72
2021/12/09 09:32:07;;;;;;;51.57;24.57;;;2.70;99.90;;;;;;5070272;28;20241;-72
2021/12/09 09:34:34;;;;;;;48.87;25.23;;;2.90;99.90;;;;;;5071407;28;20202;-72
2021/12/09 09:37:01;;;;;;;51.17;24.57;;;3.00;99.90;;;;;;5070991;28;20258;-72
2021/12/09 09:39:30;;;;;;;49.70;24.03;;;3.00;99.90;;;;;;5071356;28;20236;-72
2021/12/09 09:42:16;;;;;;;59.80;26.97;;;3.10;99.90;;;;;;5070144;28;20249;-72
2021/12/09 09:44:54;;;;;;;46.10;23.27;;;3.10;99.90;;;;;;5071540;28;20637;-72
2021/12/09 09:47:22;;;;;;;51.70;25.20;;;3.10;99.90;;;;;;5070394;28;20297;-71
2021/12/09 09:49:50;;;;;;;46.90;23.73;;;3.10;99.90;;;;;;5071085;28;20232;-73
2021/12/09 09:52:17;;;;;;;49.90;25.03;;;3.10;99.90;;;;;;5082271;28;20242;-73
2021/12/09 09:54:44;;;;;;;46.70;23.70;;;3.20;99.90;;;;;;5089885;28;20252;-73
2021/12/09 09:57:12;;;;;;;48.47;23.57;;;3.30;99.90;;;;;;5089049;28;20201;-73
2021/12/09 09:59:40;;;;;;;50.63;24.37;;;3.30;99.90;;;;;;5091273;28;20206;-72
2021/12/09 10:02:11;;;;;;;49.10;23.70;;;3.20;99.90;;;;;;5091187;28;20270;-72
2021/12/09 10:04:44;;;;;;;45.37;22.73;;;3.30;99.90;;;;;;5091453;28;20198;-72
2021/12/09 10:07:13;;;;;;;46.70;23.80;;;3.40;99.90;;;;;;5092137;28;20210;-73
2021/12/09 10:09:40;;;;;;;47.90;24.33;;;3.40;99.90;;;;;;5095181;28;20227;-71
2021/12/09 10:12:08;;;;;;;42.97;22.50;;;3.50;99.90;;;;;;5093545;28;20228;-73
2021/12/09 10:14:37;;;;;;;45.47;22.33;;;3.40;99.90;;;;;;5095177;28;20298;-72
2021/12/09 10:17:09;;;;;;;50.60;23.90;;;3.50;99.90;;;;;;5093982;28;20201;-72
2021/12/09 10:19:39;;;;;;;48.07;23.47;;;3.60;99.90;;;;;;5095354;28;20259;-72
2021/12/09 10:22:10;;;;;;;46.70;22.93;;;3.60;99.90;;;;;;5093634;28;20205;-73
2021/12/09 10:24:38;;;;;;;45.20;23.43;;;3.60;99.90;;;;;;5094894;28;20206;-72
2021/12/09 10:27:08;;;;;;;47.07;24.90;;;3.70;99.90;;;;;;5093976;28;20259;-72
2021/12/09 10:29:39;;;;;;;45.10;22.40;;;3.80;99.90;;;;;;5094969;28;20288;-73
2021/12/09 10:32:11;;;;;;;38.47;20.80;;;3.80;99.90;;;;;;5094706;28;20229;-72
2021/12/09 10:34:40;;;;;;;40.27;20.90;;;3.70;99.90;;;;;;5094988;28;20258;-72
2021/12/09 10:37:16;;;;;;;41.40;21.90;;;3.80;99.90;;;;;;5093713;28;20259;-72
2021/12/09 10:39:49;;;;;;;41.37;22.07;;;3.80;99.90;;;;;;5094221;28;20201;-72
2021/12/09 10:42:22;;;;;;;39.47;20.43;;;3.90;99.90;;;;;;5092203;28;20206;-71
2021/12/09 10:44:55;;;;;;;40.97;20.43;;;3.80;99.90;;;;;;5054391;28;20207;-66
2021/12/09 10:47:47;;;;;;;39.23;20.70;;;3.90;99.90;;;;;;5063262;28;20202;-66
2021/12/09 10:50:23;;;;;;;39.97;21.67;;;3.90;99.90;;;;;;5074530;28;20210;-65
2021/12/09 10:52:55;;;;;;;44.00;22.40;;;4.00;99.90;;;;;;5073997;28;20210;-66
2021/12/09 10:55:26;;;;;;;42.00;20.70;;;4.10;99.90;;;;;;5072992;28;20598;-66
2021/12/09 10:58:04;;;;;;;43.57;22.83;;;4.20;99.90;;;;;;5073445;28;20256;-66
2021/12/09 11:00:36;;;;;;;44.43;23.10;;;4.20;99.90;;;;;;5074000;28;20202;-66
2021/12/09 11:03:11;;;;;;;47.43;24.10;;;4.20;99.90;;;;;;5073376;28;20572;-66
2021/12/09 11:05:41;;;;;;;42.20;21.17;;;4.30;99.90;;;;;;5073571;28;20259;-66
2021/12/09 11:08:24;;;;;;;40.03;20.33;;;4.30;99.90;;;;;;5074236;28;20252;-65
2021/12/09 11:10:58;;;;;;;40.67;21.97;;;4.30;99.90;;;;;;5073705;28;20615;-66
2021/12/09 11:13:26;;;;;;;41.67;23.10;;;4.40;99.90;;;;;;5073642;28;20653;-66
2021/12/09 11:15:55;;;;;;;39.13;21.40;;;4.30;99.90;;;;;;5073239;28;20649;-66
2021/12/09 11:18:33;;;;;;;36.53;20.10;;;4.30;99.90;;;;;;5073276;28;20215;-66
2021/12/09 11:21:02;;;;;;;37.47;19.57;;;4.30;99.90;;;;;;5073172;28;20214;-66
2021/12/09 11:23:33;;;;;;;37.87;19.80;;;4.20;99.90;;;;;;5073395;28;20202;-66
2021/12/09 11:26:28;;;;;;;34.17;18.10;;;4.40;99.90;;;;;;5073498;28;20595;-66
2021/12/09 11:28:57;;;;;;;37.77;19.80;;;4.30;99.90;;;;;;5074022;28;20261;-66
2021/12/09 11:31:28;;;;;;;37.10;19.93;;;4.30;99.90;;;;;;5076031;28;20230;-65
2021/12/09 11:34:05;;;;;;;39.37;19.93;;;4.40;99.90;;;;;;5074315;28;20260;-66
2021/12/09 11:36:53;;;;;;;37.63;20.57;;;4.40;99.90;;;;;;5074009;28;20229;-65
2021/12/09 11:39:30;;;;;;;39.30;20.37;;;4.40;99.90;;;;;;5073072;28;20305;-66
2021/12/09 11:42:05;;;;;;;40.77;21.07;;;4.50;99.90;;;;;;5071115;28;20210;-66
2021/12/09 11:44:33;;;;;;;37.80;19.90;;;4.60;99.90;;;;;;5072981;28;20788;-66
2021/12/09 11:47:00;;;;;;;37.07;20.07;;;4.60;99.90;;;;;;5073435;28;20217;-66
2021/12/09 11:49:29;;;;;;;36.90;19.73;;;4.60;99.90;;;;;;5073863;28;20644;-66
2021/12/09 11:51:56;;;;;;;34.67;20.53;;;4.70;99.90;;;;;;5072697;28;20386;-66
2021/12/09 11:54:24;;;;;;;33.73;19.23;;;4.80;99.90;;;;;;5073211;28;20579;-66
2021/12/09 11:57:09;;;;;;;36.27;20.20;;;4.90;99.90;;;;;;5071933;28;20268;-66
2021/12/09 12:06:38;;;;;;;34.60;20.63;;;4.80;99.90;;;;;;5072548;28;20237;-66
2021/12/09 12:11:37;;;;;;;38.27;20.63;;;5.00;99.90;;;;;;5092288;28;20201;-66
2021/12/09 12:14:14;;;;;;;36.77;20.37;;;5.10;99.90;;;;;;5092838;28;20202;-66
2021/12/09 12:20:06;;;;;;;37.50;19.47;;;5.10;99.90;;;;;;5089191;28;20200;-67
2021/12/09 12:28:42;;;;;;;36.47;18.50;;;5.20;99.90;;;;;;5074868;28;20209;-66
2021/12/09 12:31:27;;;;;;;37.57;19.70;;;5.20;99.90;;;;;;5091477;28;20309;-66
2021/12/09 12:37:07;;;;;;;32.23;18.07;;;5.30;99.90;;;;;;5091155;28;20221;-66
2021/12/09 12:39:57;;;;;;;32.93;18.23;;;5.40;99.90;;;;;;5092745;28;20210;-66
2021/12/09 12:42:37;;;;;;;30.57;15.63;;;5.70;99.90;;;;;;5091246;28;20301;-68
2021/12/09 12:45:26;;;;;;;29.60;17.50;;;6.10;99.90;;;;;;5092807;28;20314;-66
2021/12/09 12:47:59;;;;;;;28.57;15.40;;;6.10;99.90;;;;;;5091875;28;20305;-66
2021/12/09 12:50:26;;;;;;;23.67;13.77;;;6.40;99.90;;;;;;5092639;28;20300;-66
2021/12/09 12:52:57;;;;;;;24.93;14.07;;;6.40;99.90;;;;;;5091538;28;20209;-66
2021/12/09 12:55:26;;;;;;;25.00;14.13;;;6.40;99.90;;;;;;5091144;28;20293;-65
2021/12/09 12:57:54;;;;;;;23.27;13.17;;;6.40;99.90;;;;;;5091436;28;20209;-67
2021/12/09 13:00:27;;;;;;;23.90;13.00;;;6.70;99.90;;;;;;5092171;28;20271;-66
2021/12/09 13:03:19;;;;;;;27.43;14.00;;;6.60;99.90;;;;;;5091354;28;20647;-69
2021/12/09 13:05:57;;;;;;;29.50;14.13;;;6.40;99.90;;;;;;5091951;28;20241;-66
2021/12/09 13:09:00;;;;;;;29.07;15.07;;;6.40;99.90;;;;;;5092051;28;20268;-66